Time;durP1;ratioP1;P1;durP2;ratioP2;P2;SDS_P1;SDS_P2;PMS_P1;PMS_P2;Temp;Humidity;BMP_temperature;BMP_pressure;BME280_temperature;BME280_humidity;BME280_pressure;Samples;Min_cycle;Max_cycle;Signal;HPM_P1;HPM_P2
2023/12/29 00:04:12;;;;;;;3.05;2.85;;;9.70;99.90;;;10.34;89.35;97986.19;10489684;28;20299;-67
2023/12/29 00:09:16;;;;;;;2.60;2.40;;;9.70;99.90;;;10.60;87.61;97976.63;10487371;28;20314;-67
2023/12/29 00:14:20;;;;;;;2.80;2.60;;;9.90;99.90;;;10.43;87.55;97970.53;10488304;28;20260;-67
2023/12/29 00:19:23;;;;;;;3.05;2.85;;;9.80;99.90;;;10.42;87.64;97973.00;10469776;28;20240;-67
2023/12/29 00:24:27;;;;;;;2.90;2.70;;;9.70;99.90;;;10.35;88.39;97962.41;10438944;28;20232;-67
2023/12/29 00:29:32;;;;;;;3.30;3.10;;;9.70;99.90;;;10.25;88.60;97965.19;10460652;28;20602;-67
2023/12/29 00:34:37;;;;;;;3.08;2.80;;;9.60;99.90;;;10.51;86.97;97960.78;10488530;28;20307;-67
2023/12/29 00:39:41;;;;;;;2.83;2.63;;;9.70;99.90;;;10.52;86.75;97970.19;10489761;28;20235;-67
2023/12/29 00:44:45;;;;;;;3.20;3.00;;;9.80;99.90;;;10.31;88.52;97957.91;10486603;28;20656;-67
2023/12/29 00:49:48;;;;;;;2.92;2.72;;;9.70;99.90;;;10.34;88.93;97947.00;10489252;28;20220;-67
2023/12/29 00:54:51;;;;;;;3.40;3.20;;;9.60;99.90;;;10.50;86.95;97934.34;10487444;28;20220;-68
2023/12/29 00:59:56;;;;;;;2.80;2.60;;;9.70;99.90;;;10.27;88.31;97938.09;10490139;28;20232;-68
2023/12/29 01:04:59;;;;;;;3.22;3.03;;;9.60;99.90;;;10.22;88.58;97949.69;10488109;28;20231;-67
2023/12/29 01:10:03;;;;;;;3.10;2.90;;;9.60;99.90;;;10.25;88.29;97949.84;10482363;28;20277;-68
2023/12/29 01:15:09;;;;;;;3.45;3.25;;;9.60;99.90;;;10.36;87.77;97951.41;10484674;28;20603;-66
2023/12/29 01:20:13;;;;;;;3.28;3.08;;;9.60;99.90;;;10.48;86.25;97942.72;10490769;28;20718;-67
2023/12/29 01:25:16;;;;;;;3.05;2.85;;;9.70;99.90;;;10.26;88.36;97951.59;10489923;28;20302;-66
2023/12/29 01:30:20;;;;;;;3.53;3.33;;;9.60;99.90;;;10.37;86.96;97955.72;10487638;28;20645;-67
2023/12/29 01:35:23;;;;;;;3.35;3.05;;;9.70;99.90;;;10.63;85.33;97958.94;10465240;28;20788;-67
2023/12/29 01:40:27;;;;;;;3.33;3.03;;;9.80;99.90;;;10.50;85.42;97959.00;10409433;28;20718;-67
2023/12/29 01:45:31;;;;;;;3.72;3.42;;;9.80;99.90;;;10.51;84.43;97945.44;10429409;28;20316;-67
2023/12/29 01:50:36;;;;;;;3.42;3.20;;;9.70;99.90;;;10.27;84.87;97947.41;10493986;28;20830;-67
2023/12/29 01:55:39;;;;;;;3.72;3.42;;;9.50;99.90;;;10.12;85.24;97944.78;10496902;28;20220;-68
2023/12/29 02:00:44;;;;;;;4.47;3.55;;;9.40;99.90;;;10.24;84.41;97945.53;10494098;28;20619;-67
2023/12/29 02:05:49;;;;;;;3.75;3.45;;;9.40;99.90;;;10.58;83.00;97934.75;10496221;28;20236;-67
2023/12/29 02:10:52;;;;;;;3.58;3.30;;;9.80;99.90;;;10.51;82.31;97919.88;10460079;28;20320;-67
2023/12/29 02:16:06;;;;;;;4.40;4.05;;;9.90;99.90;;;10.59;82.82;97927.19;10449792;28;21626;-67
2023/12/29 02:21:09;;;;;;;3.85;3.58;;;9.90;99.90;;;10.54;82.00;97927.72;10415263;28;20225;-67
2023/12/29 02:26:17;;;;;;;4.28;3.97;;;10.10;99.90;;;10.56;82.60;97926.16;10415072;28;20341;-68
2023/12/29 02:31:24;;;;;;;3.63;3.42;;;10.20;99.90;;;10.52;82.76;97926.75;10413858;28;20233;-68
2023/12/29 02:36:28;;;;;;;4.10;3.80;;;10.00;99.90;;;10.62;82.96;97925.63;10456047;28;20646;-67
2023/12/29 02:41:33;;;;;;;4.43;4.13;;;10.00;99.90;;;10.53;82.95;97915.72;10491763;28;20672;-67
2023/12/29 02:46:37;;;;;;;4.00;3.70;;;9.90;99.90;;;10.54;83.07;97905.59;10497994;28;20228;-68
2023/12/29 02:51:40;;;;;;;4.15;3.75;;;9.90;99.90;;;10.63;82.16;97912.91;10496404;28;20239;-67
2023/12/29 02:56:45;;;;;;;3.80;3.60;;;10.20;99.90;;;10.56;82.53;97910.81;10487864;28;20603;-67
2023/12/29 03:01:48;;;;;;;4.18;3.88;;;10.10;99.90;;;10.53;82.92;97895.28;10463195;28;20226;-68
2023/12/29 03:06:51;;;;;;;4.45;4.10;;;10.10;99.90;;;10.67;82.00;97899.50;10412727;28;20233;-67
2023/12/29 03:11:56;;;;;;;4.03;3.83;;;10.10;99.90;;;10.58;83.10;97899.88;10414604;28;20229;-67
2023/12/29 03:16:59;;;;;;;4.38;3.97;;;10.10;99.90;;;10.48;83.63;97895.03;10411310;28;20308;-68
2023/12/29 03:22:03;;;;;;;4.00;3.70;;;10.10;99.90;;;10.48;83.72;97894.16;10415441;28;20221;-70
2023/12/29 03:27:07;;;;;;;4.50;4.10;;;10.00;99.90;;;10.42;84.57;97886.13;10411819;28;20283;-67
2023/12/29 03:32:10;;;;;;;3.80;3.50;;;9.90;99.90;;;10.46;85.90;97891.50;10412305;28;20674;-67
2023/12/29 03:37:13;;;;;;;4.28;3.97;;;10.00;99.90;;;10.43;85.50;97882.78;10410369;28;20232;-67
2023/12/29 03:42:18;;;;;;;4.68;4.28;;;9.80;99.90;;;10.38;86.00;97869.72;10415534;28;20265;-68
2023/12/29 03:47:21;;;;;;;4.25;3.95;;;9.70;99.90;;;10.49;85.84;97875.47;10436255;28;20232;-67
2023/12/29 03:52:24;;;;;;;3.85;3.55;;;9.90;99.90;;;10.55;85.78;97871.56;10411671;28;20245;-67
2023/12/29 03:57:29;;;;;;;4.05;3.72;;;9.90;99.90;;;10.51;86.40;97874.75;10434383;28;20361;-67
2023/12/29 04:02:32;;;;;;;3.88;3.58;;;10.00;99.90;;;10.55;86.38;97876.69;10490470;28;20262;-68
2023/12/29 04:07:35;;;;;;;4.15;3.85;;;10.20;99.90;;;10.48;87.00;97873.72;10461856;28;20232;-68
2023/12/29 04:12:39;;;;;;;4.35;4.00;;;9.90;99.90;;;10.31;87.74;97878.72;10424232;28;20540;-67
2023/12/29 04:17:43;;;;;;;3.97;3.67;;;9.70;99.90;;;10.16;89.99;97880.34;10434151;28;20243;-67
2023/12/29 04:22:47;;;;;;;3.60;3.40;;;9.50;99.90;;;10.12;90.30;97875.84;10489504;28;20262;-67
2023/12/29 04:27:52;;;;;;;3.58;3.38;;;9.40;99.90;;;10.06;90.75;97878.91;10490425;28;20232;-68
2023/12/29 04:32:55;;;;;;;4.18;3.88;;;9.40;99.90;;;10.17;89.17;97884.66;10482948;28;21611;-67
2023/12/29 04:37:58;;;;;;;3.47;3.17;;;9.40;99.90;;;10.08;90.47;97886.69;10490260;28;20736;-68
2023/12/29 04:43:04;;;;;;;4.03;3.47;;;9.40;99.90;;;10.23;89.69;97885.00;10488485;28;20216;-67
2023/12/29 04:48:07;;;;;;;3.50;3.20;;;9.40;99.90;;;10.11;89.55;97889.41;10486537;28;20595;-68
2023/12/29 04:53:11;;;;;;;3.28;3.00;;;9.40;99.90;;;10.15;90.80;97891.34;10493386;28;20351;-67
2023/12/29 04:58:15;;;;;;;3.90;3.60;;;9.50;99.90;;;10.26;89.90;97895.41;10456052;28;20706;-67
2023/12/29 05:03:18;;;;;;;3.95;3.65;;;9.50;99.90;;;10.13;90.66;97895.50;10468240;28;20588;-67
2023/12/29 05:08:22;;;;;;;3.70;3.40;;;9.40;99.90;;;10.08;91.86;97892.66;10483645;28;20232;-67
2023/12/29 05:13:27;;;;;;;3.58;3.38;;;9.40;99.90;;;10.12;91.32;97896.28;10469560;28;20279;-68
2023/12/29 05:18:30;;;;;;;3.90;3.50;;;9.30;99.90;;;9.96;93.17;97899.59;10407652;28;20229;-66
2023/12/29 05:23:33;;;;;;;3.78;3.50;;;9.20;99.90;;;10.11;93.00;97894.53;10439622;28;20239;-67
2023/12/29 05:28:38;;;;;;;3.67;3.38;;;9.30;99.90;;;10.12;92.10;97891.16;10494583;28;20664;-67
2023/12/29 05:33:41;;;;;;;3.53;3.33;;;9.30;99.90;;;10.11;92.43;97885.19;10472237;28;20304;-67
2023/12/29 05:38:46;;;;;;;4.07;3.72;;;9.30;99.90;;;10.20;92.14;97889.94;10430616;28;20224;-66
2023/12/29 05:43:51;;;;;;;3.10;2.90;;;9.30;99.90;;;10.14;92.93;97884.47;10497087;28;20288;-66
2023/12/29 05:48:54;;;;;;;3.70;3.40;;;9.30;99.90;;;10.12;93.43;97898.81;10491896;28;20230;-67
2023/12/29 05:53:57;;;;;;;3.63;3.33;;;9.30;99.90;;;10.06;93.05;97896.78;10494013;28;20228;-67
2023/12/29 05:59:02;;;;;;;4.10;3.90;;;9.30;99.90;;;10.06;94.57;97890.81;10494238;28;20222;-67
2023/12/29 06:04:05;;;;;;;3.50;3.30;;;9.30;99.90;;;10.07;94.93;97893.47;10430158;28;20237;-67
2023/12/29 06:09:10;;;;;;;3.63;3.33;;;9.20;99.90;;;10.09;95.41;97901.19;10431344;28;20759;-67
2023/12/29 06:14:14;;;;;;;3.60;3.30;;;9.30;99.90;;;10.07;94.68;97902.78;10493506;28;20315;-67
2023/12/29 06:19:18;;;;;;;4.05;3.55;;;9.30;99.90;;;9.90;96.11;97910.31;10490904;28;20277;-67
2023/12/29 06:24:21;;;;;;;4.25;3.95;;;9.20;99.90;;;9.77;96.45;97904.38;10491452;28;20224;-67
2023/12/29 06:29:26;;;;;;;3.22;3.00;;;9.00;99.90;;;9.69;97.69;97909.00;10472653;28;20249;-67
2023/12/29 06:34:29;;;;;;;3.78;3.47;;;8.90;99.90;;;9.64;97.90;97915.50;10410681;28;20268;-66
2023/12/29 06:39:32;;;;;;;3.67;3.38;;;8.90;99.90;;;9.58;98.09;97912.56;10440508;28;20293;-67
2023/12/29 06:44:37;;;;;;;3.70;3.40;;;8.90;99.90;;;9.64;99.16;97903.66;10491935;28;20216;-67
2023/12/29 06:49:40;;;;;;;3.90;3.60;;;8.90;99.90;;;9.62;99.14;97894.13;10468949;28;20238;-67
2023/12/29 06:54:44;;;;;;;3.60;3.30;;;8.90;99.90;;;9.52;99.18;97884.13;10415576;28;20222;-68
2023/12/29 06:59:48;;;;;;;3.50;3.20;;;8.80;99.90;;;9.59;99.12;97896.50;10405555;28;20233;-68
2023/12/29 07:04:51;;;;;;;3.90;3.70;;;8.80;99.90;;;9.73;99.00;97894.75;10498266;28;20228;-67
2023/12/29 07:09:54;;;;;;;3.25;3.05;;;8.90;99.90;;;9.92;97.09;97877.22;10493175;28;20579;-68
2023/12/29 07:14:59;;;;;;;3.40;3.20;;;9.10;99.90;;;9.83;96.21;97890.31;10496040;28;20232;-67
2023/12/29 07:20:02;;;;;;;3.35;3.15;;;9.20;99.90;;;9.83;97.47;97897.97;10462911;28;20230;-68
2023/12/29 07:25:06;;;;;;;3.83;3.53;;;9.10;99.90;;;9.66;98.64;97894.38;10499332;28;20230;-68
2023/12/29 07:30:13;;;;;;;3.72;3.42;;;9.00;99.90;;;9.72;98.63;97888.78;10492305;28;20327;-68
2023/12/29 07:35:17;;;;;;;3.10;2.90;;;9.00;99.90;;;9.74;98.49;97889.75;10454665;28;20245;-67
2023/12/29 07:40:20;;;;;;;3.75;3.45;;;9.00;99.90;;;9.73;98.64;97887.09;10477353;28;20236;-67
2023/12/29 07:45:25;;;;;;;4.07;3.78;;;9.00;99.90;;;9.90;98.26;97883.88;10469462;28;20222;-67
2023/12/29 07:50:28;;;;;;;3.42;3.13;;;9.20;99.90;;;9.83;99.00;97884.31;10463174;28;20704;-67
2023/12/29 07:55:32;;;;;;;3.38;3.17;;;9.20;99.90;;;9.88;99.81;97894.03;10497176;28;20246;-69
2023/12/29 08:00:36;;;;;;;3.40;3.10;;;9.20;99.90;;;10.14;98.25;97882.81;10493068;28;20714;-67
2023/12/29 08:05:40;;;;;;;3.40;3.20;;;9.40;99.90;;;10.11;97.34;97885.19;10484505;28;20228;-67
2023/12/29 08:10:43;;;;;;;3.40;3.10;;;9.40;99.90;;;10.22;97.42;97893.47;10457278;28;20328;-67
2023/12/29 08:15:47;;;;;;;6.90;6.22;;;9.50;99.90;;;10.33;96.63;97895.03;10467429;28;20338;-66
2023/12/29 08:20:51;;;;;;;10.05;9.05;;;9.60;99.90;;;10.40;96.56;97898.81;10492508;28;20232;-69
2023/12/29 08:25:54;;;;;;;8.35;7.65;;;9.70;99.90;;;10.46;96.28;97903.41;10469016;28;20229;-68
2023/12/29 08:31:01;;;;;;;5.72;5.22;;;9.80;99.90;;;10.65;95.31;97905.34;10409779;28;20252;-66
2023/12/29 08:36:06;;;;;;;6.53;6.13;;;9.90;99.90;;;10.85;94.80;97907.38;10408555;28;20656;-67
2023/12/29 08:41:09;;;;;;;5.07;4.72;;;10.00;99.90;;;10.89;92.95;97903.28;10410266;28;20258;-68
2023/12/29 08:46:14;;;;;;;4.20;3.90;;;10.20;99.90;;;11.03;92.82;97912.63;10411721;28;20513;-66
2023/12/29 08:51:17;;;;;;;3.30;3.10;;;10.20;99.90;;;11.18;90.72;97907.47;10437124;28;20231;-67
2023/12/29 08:56:20;;;;;;;3.03;2.83;;;10.40;99.90;;;11.16;90.11;97906.50;10489084;28;20308;-66
2023/12/29 09:01:25;;;;;;;3.33;3.13;;;10.50;99.90;;;11.18;90.77;97913.47;10505598;28;20291;-68
2023/12/29 09:06:28;;;;;;;2.70;2.50;;;10.50;99.90;;;11.26;90.43;97903.66;10487838;28;20707;-67
2023/12/29 09:11:31;;;;;;;3.08;2.88;;;10.60;99.90;;;11.19;90.62;97911.81;10503464;28;20235;-68
2023/12/29 09:16:36;;;;;;;3.15;2.95;;;10.40;99.90;;;11.12;90.38;97913.13;10491959;28;20785;-67
2023/12/29 09:21:42;;;;;;;3.05;2.85;;;10.30;99.90;;;11.07;91.26;97911.97;10414762;28;20237;-67
2023/12/29 09:26:45;;;;;;;2.67;2.58;;;10.30;99.90;;;11.11;90.53;97911.38;10425055;28;20232;-66
2023/12/29 09:31:49;;;;;;;3.33;3.03;;;10.30;99.90;;;11.35;88.75;97919.50;10495201;28;20230;-66
2023/12/29 09:36:52;;;;;;;3.05;2.85;;;10.50;99.90;;;11.32;88.52;97926.16;10493468;28;20228;-67
2023/12/29 09:42:00;;;;;;;2.58;2.38;;;10.60;99.90;;;11.41;88.15;97919.84;10467336;28;20239;-66
2023/12/29 09:47:07;;;;;;;2.88;2.60;;;10.60;99.90;;;11.45;88.29;97934.59;10478918;28;20236;-66
2023/12/29 09:52:13;;;;;;;4.60;2.95;;;10.60;99.90;;;11.30;88.21;97930.28;10429052;28;20233;-67
2023/12/29 09:57:18;;;;;;;3.10;2.90;;;10.70;99.90;;;11.56;87.78;97924.94;10410494;28;20299;-66
2023/12/29 10:02:23;;;;;;;2.70;2.40;;;10.80;99.90;;;11.55;87.07;97928.28;10478860;28;20246;-66
2023/12/29 10:07:28;;;;;;;2.40;2.20;;;11.00;99.90;;;11.57;86.28;97923.25;10492045;28;20233;-67
2023/12/29 10:12:33;;;;;;;2.10;1.95;;;10.90;99.90;;;11.52;86.81;97917.88;10453509;28;20217;-67
2023/12/29 10:17:50;;;;;;;2.60;2.40;;;10.80;99.90;;;11.64;86.40;97918.53;10405213;28;20637;-67
2023/12/29 10:23:06;;;;;;;2.35;2.13;;;11.10;99.90;;;11.77;86.85;97906.41;10416537;28;20313;-67
2023/12/29 10:28:11;;;;;;;2.40;2.20;;;11.30;99.90;;;11.93;85.79;97899.66;10427548;28;20279;-67
2023/12/29 10:33:21;;;;;;;2.60;2.50;;;11.40;99.90;;;12.00;83.83;97900.84;10416558;28;20283;-67
2023/12/29 10:38:24;;;;;;;2.28;2.17;;;11.60;99.90;;;11.98;84.34;97891.31;10412581;28;20294;-66
2023/12/29 10:43:27;;;;;;;2.55;2.35;;;11.60;99.90;;;12.04;84.89;97887.38;10414027;28;20316;-67
2023/12/29 10:48:32;;;;;;;2.47;2.38;;;11.60;99.90;;;12.23;83.73;97870.38;10406390;28;20222;-65
2023/12/29 10:53:37;;;;;;;2.20;2.10;;;11.70;99.90;;;12.21;83.24;97872.00;10405993;28;20232;-66
2023/12/29 10:58:43;;;;;;;2.25;2.08;;;11.70;99.90;;;12.26;82.58;97865.41;10489919;28;20228;-67
2023/12/29 11:03:59;;;;;;;2.38;2.28;;;11.60;99.90;;;12.42;80.78;97855.13;10494257;28;20691;-66
2023/12/29 11:09:02;;;;;;;2.72;2.33;;;12.00;99.90;;;12.48;81.32;97858.00;10461291;28;20230;-67
2023/12/29 11:14:06;;;;;;;2.58;2.38;;;11.90;99.90;;;12.55;80.83;97847.22;10459326;28;20239;-66
2023/12/29 11:19:13;;;;;;;2.13;2.03;;;12.20;99.90;;;12.67;79.86;97858.88;10449102;28;20225;-66
2023/12/29 11:24:17;;;;;;;1.95;1.85;;;12.30;99.90;;;12.45;80.00;97842.47;10463390;28;20720;-66
2023/12/29 11:29:30;;;;;;;2.20;2.00;;;12.00;99.90;;;12.43;80.07;97845.75;10449259;28;20307;-66
2023/12/29 11:34:40;;;;;;;2.83;2.00;;;11.90;99.90;;;12.51;78.77;97840.22;10448850;28;20675;-66
2023/12/29 11:39:51;;;;;;;1.98;1.88;;;12.00;99.90;;;12.42;77.97;97842.31;10450497;28;20238;-67
2023/12/29 11:44:54;;;;;;;2.60;1.73;;;11.90;99.90;;;12.55;78.64;97842.09;10449143;28;20237;-66
2023/12/29 11:50:04;;;;;;;2.00;1.90;;;11.90;99.90;;;12.50;79.07;97827.28;10449084;28;20231;-67
2023/12/29 11:55:11;;;;;;;1.80;1.70;;;11.80;99.90;;;12.49;77.45;97811.03;10478301;28;20551;-67
2023/12/29 12:00:16;;;;;;;2.33;2.17;;;11.90;99.90;;;12.51;77.81;97827.38;10487115;28;20810;-67
2023/12/29 12:05:48;;;;;;;1.83;1.73;;;11.80;99.90;;;12.46;75.95;97828.84;10461246;28;20725;-67
2023/12/29 12:10:51;;;;;;;1.90;1.80;;;11.70;99.90;;;12.37;77.70;97823.25;10455236;28;20233;-67
2023/12/29 12:15:54;;;;;;;2.08;1.98;;;11.50;99.90;;;12.37;77.70;97818.13;10408831;28;20229;-68
2023/12/29 12:21:00;;;;;;;2.00;1.90;;;11.60;99.90;;;12.33;77.90;97816.22;10405011;28;20233;-68
2023/12/29 12:26:06;;;;;;;1.92;1.83;;;11.50;99.90;;;12.35;77.09;97815.47;10472729;28;20228;-67
2023/12/29 12:31:10;;;;;;;2.30;2.20;;;11.60;99.90;;;12.28;77.97;97804.88;10416240;28;20233;-66
2023/12/29 12:36:15;;;;;;;2.30;2.20;;;11.40;99.90;;;12.32;77.03;97796.53;10401133;28;20232;-66
2023/12/29 12:41:18;;;;;;;2.10;2.00;;;11.60;99.90;;;12.40;75.92;97795.22;10403886;28;20226;-66
2023/12/29 12:46:25;;;;;;;2.30;2.20;;;11.60;99.90;;;12.48;76.40;97796.47;10414164;28;20229;-67
2023/12/29 12:51:30;;;;;;;2.13;2.00;;;11.60;99.90;;;12.35;75.98;97784.72;10412023;28;20225;-67
2023/12/29 12:56:33;;;;;;;2.10;2.00;;;11.60;99.90;;;12.36;75.99;97771.13;10486455;28;20216;-66
2023/12/29 13:01:38;;;;;;;2.08;1.88;;;11.60;99.90;;;12.51;72.92;97778.69;10491715;28;20236;-67
2023/12/29 13:06:44;;;;;;;1.95;1.85;;;11.90;99.90;;;12.60;73.26;97779.09;10490812;28;20232;-66
2023/12/29 13:11:51;;;;;;;2.40;2.25;;;11.90;99.90;;;12.47;74.76;97781.88;10426053;28;20253;-66
2023/12/29 13:16:54;;;;;;;1.85;1.75;;;11.80;99.90;;;12.68;74.47;97783.75;10409613;28;20313;-67
2023/12/29 13:21:59;;;;;;;2.35;2.25;;;11.90;99.90;;;12.74;75.37;97790.03;10406751;28;20664;-66
2023/12/29 13:27:07;;;;;;;2.10;2.00;;;12.00;99.90;;;12.72;75.86;97789.06;10415244;28;20790;-67
2023/12/29 13:32:16;;;;;;;2.67;2.50;;;12.00;99.90;;;12.81;74.92;97780.94;10408362;28;20239;-66
2023/12/29 13:37:27;;;;;;;2.05;1.92;;;11.90;99.90;;;13.12;73.74;97778.09;10413700;28;20221;-66
2023/12/29 13:42:33;;;;;;;2.50;2.30;;;12.30;99.90;;;13.10;71.77;97783.97;10487370;28;20228;-67
2023/12/29 13:47:38;;;;;;;2.30;2.10;;;12.40;99.90;;;13.14;70.64;97778.19;10499388;28;20238;-65
2023/12/29 13:52:42;;;;;;;2.10;2.00;;;12.40;99.90;;;13.02;71.88;97770.78;10423082;28;20308;-66
2023/12/29 13:57:46;;;;;;;2.00;1.90;;;12.30;99.90;;;13.12;68.68;97766.94;10416589;28;20225;-66
2023/12/29 14:02:58;;;;;;;2.20;2.10;;;12.40;99.90;;;12.92;70.26;97781.44;10423828;28;20710;-67
2023/12/29 14:08:11;;;;;;;1.77;1.67;;;12.30;99.90;;;12.94;69.45;97778.13;10412291;28;20228;-66
2023/12/29 14:13:16;;;;;;;2.08;1.98;;;12.10;99.90;;;12.80;68.93;97784.31;10457335;28;20217;-67
2023/12/29 14:18:54;;;;;;;1.92;1.83;;;12.30;99.90;;;12.68;69.89;97789.75;10427851;28;20248;-67
2023/12/29 14:24:13;;;;;;;2.10;2.00;;;12.10;99.90;;;12.67;69.92;97784.53;10473809;28;20559;-67
2023/12/29 14:29:16;;;;;;;2.20;2.05;;;12.20;99.90;;;12.64;70.08;97785.25;10449999;28;20270;-67
2023/12/29 14:34:20;;;;;;;2.17;2.00;;;12.00;99.90;;;12.58;70.47;97793.53;10480088;28;20297;-68
2023/12/29 14:39:25;;;;;;;2.22;2.03;;;12.10;99.90;;;12.54;71.28;97785.63;10438957;28;20638;-67
2023/12/29 14:44:28;;;;;;;2.30;2.15;;;11.90;99.90;;;12.53;69.55;97795.03;10444128;28;20229;-66
2023/12/29 14:49:31;;;;;;;1.88;1.70;;;12.00;99.90;;;12.54;68.39;97791.63;10454835;28;20232;-67
2023/12/29 14:54:35;;;;;;;2.40;2.00;;;11.90;99.90;;;12.37;67.73;97787.38;10477136;28;20336;-66
2023/12/29 14:59:40;;;;;;;2.20;2.10;;;11.80;99.90;;;12.31;67.41;97781.97;10476072;28;20235;-66
2023/12/29 15:04:44;;;;;;;2.42;2.08;;;11.70;99.90;;;12.31;67.60;97787.09;10489213;28;20588;-66
2023/12/29 15:09:48;;;;;;;2.53;2.33;;;11.60;99.90;;;12.26;66.69;97791.09;10493527;28;20224;-66
2023/12/29 15:14:51;;;;;;;2.22;2.08;;;11.80;99.90;;;12.16;65.71;97788.09;10490091;28;20224;-66
2023/12/29 15:19:54;;;;;;;2.40;2.30;;;11.60;99.90;;;12.10;64.87;97795.47;10491089;28;20296;-66
2023/12/29 15:24:59;;;;;;;2.38;2.13;;;11.60;99.90;;;12.02;65.30;97796.78;10493986;28;20776;-66
2023/12/29 15:30:02;;;;;;;2.63;2.42;;;11.50;99.90;;;11.92;64.36;97794.53;10487989;28;20224;-66
2023/12/29 15:35:06;;;;;;;2.05;1.92;;;11.50;99.90;;;11.85;64.28;97805.25;10493182;28;20700;-67
2023/12/29 15:40:12;;;;;;;2.53;2.33;;;11.40;99.90;;;11.72;64.92;97801.16;10462526;28;20754;-67
2023/12/29 15:45:16;;;;;;;2.67;2.58;;;11.30;99.90;;;11.64;64.95;97789.66;10481786;28;20337;-67
2023/12/29 15:50:19;;;;;;;3.03;2.70;;;11.10;99.90;;;11.61;65.11;97804.84;10480479;28;20293;-66
2023/12/29 15:55:24;;;;;;;2.35;2.22;;;11.10;99.90;;;11.50;65.79;97800.06;10492287;28;20314;-67
2023/12/29 16:00:27;;;;;;;2.33;2.22;;;11.10;99.90;;;11.42;65.51;97803.91;10490169;28;20223;-67
2023/12/29 16:05:30;;;;;;;3.30;3.10;;;11.00;99.90;;;11.38;65.45;97799.41;10456287;28;20249;-66
2023/12/29 16:10:36;;;;;;;3.13;2.78;;;11.10;99.90;;;11.24;65.85;97791.00;10458749;28;20232;-65
2023/12/29 16:15:40;;;;;;;2.33;2.08;;;10.90;99.90;;;11.26;64.98;97789.41;10443158;28;20232;-67
2023/12/29 16:20:43;;;;;;;2.60;2.50;;;10.90;99.90;;;11.22;65.62;97792.63;10425653;28;20643;-67
2023/12/29 16:25:47;;;;;;;2.30;2.20;;;10.80;99.90;;;11.17;65.24;97800.84;10491342;28;20223;-67
2023/12/29 16:30:51;;;;;;;2.83;2.63;;;10.80;99.90;;;11.17;65.14;97796.59;10448578;28;20239;-67
2023/12/29 16:35:54;;;;;;;3.00;2.75;;;10.70;99.90;;;11.19;66.21;97796.69;10463597;28;20224;-68
2023/12/29 16:40:58;;;;;;;3.42;3.10;;;10.70;99.90;;;11.21;65.86;97801.06;10448080;28;20442;-67
2023/12/29 16:46:02;;;;;;;3.42;3.13;;;10.70;99.90;;;11.09;67.13;97799.53;10442753;28;20306;-67
2023/12/29 16:51:07;;;;;;;3.15;2.95;;;10.40;99.90;;;11.18;66.75;97802.59;10477033;28;20246;-68
2023/12/29 16:56:13;;;;;;;3.13;2.90;;;10.50;99.90;;;11.05;66.55;97796.81;10455587;28;20315;-67
2023/12/29 17:01:17;;;;;;;3.10;2.90;;;10.50;99.90;;;10.97;66.49;97802.31;10487714;28;20829;-66
2023/12/29 17:06:20;;;;;;;3.10;2.90;;;10.40;99.90;;;10.82;67.49;97797.25;10442794;28;20741;-67
2023/12/29 17:11:25;;;;;;;3.30;3.10;;;10.10;99.90;;;10.55;69.14;97794.91;10440595;28;20775;-67
2023/12/29 17:16:29;;;;;;;3.53;3.22;;;9.80;99.90;;;10.35;70.78;97791.22;10450701;28;20299;-67
2023/12/29 17:21:33;;;;;;;3.88;3.53;;;9.60;99.90;;;10.12;71.36;97796.66;10471125;28;20652;-68
2023/12/29 17:26:37;;;;;;;4.05;3.78;;;9.40;99.90;;;9.86;72.57;97790.94;10437014;28;20229;-68
2023/12/29 17:31:41;;;;;;;4.57;4.13;;;9.10;99.90;;;9.63;73.97;97786.16;10479450;28;20333;-67
2023/12/29 17:36:45;;;;;;;4.60;4.30;;;8.80;99.90;;;9.41;74.62;97797.63;10492797;28;20232;-66
2023/12/29 17:41:50;;;;;;;4.45;4.05;;;8.60;99.90;;;9.34;75.81;97802.28;10496335;28;20225;-67
2023/12/29 17:46:55;;;;;;;4.60;4.20;;;8.50;99.90;;;9.16;76.32;97813.09;10500459;28;20311;-67
2023/12/29 17:51:59;;;;;;;4.88;4.45;;;8.40;99.90;;;9.05;76.07;97815.78;10461079;28;20333;-68
2023/12/29 17:57:04;;;;;;;5.97;5.47;;;8.30;99.90;;;8.93;76.30;97813.34;10428256;28;20221;-67
2023/12/29 18:02:07;;;;;;;6.78;6.18;;;8.20;99.90;;;8.76;78.14;97809.75;10450848;28;20237;-66
2023/12/29 18:07:10;;;;;;;9.05;8.25;;;8.00;99.90;;;8.66;78.97;97817.59;10422915;28;20240;-65
2023/12/29 18:12:16;;;;;;;8.45;7.75;;;7.90;99.90;;;8.54;80.09;97807.50;10421379;28;20240;-66
2023/12/29 18:17:21;;;;;;;12.93;11.63;;;7.70;99.90;;;8.32;80.54;97806.06;10484220;28;20231;-67
2023/12/29 18:22:24;;;;;;;14.40;13.05;;;7.60;99.90;;;8.25;81.11;97814.09;10438006;28;20240;-67
2023/12/29 18:27:32;;;;;;;9.57;8.70;;;7.50;99.90;;;8.16;81.66;97812.63;10452689;28;20233;-66
2023/12/29 18:32:35;;;;;;;7.40;6.73;;;7.40;99.90;;;8.03;81.99;97809.25;10472400;28;21624;-67
2023/12/29 18:37:39;;;;;;;7.27;6.67;;;7.30;99.90;;;7.96;83.05;97809.66;10417197;28;20662;-67
2023/12/29 18:42:43;;;;;;;11.13;10.17;;;7.20;99.90;;;7.87;83.87;97814.16;10483684;28;20280;-65
2023/12/29 18:47:50;;;;;;;9.93;9.07;;;7.10;99.90;;;7.82;85.02;97808.72;10481909;28;20228;-66
2023/12/29 18:52:54;;;;;;;22.70;20.40;;;7.00;99.90;;;7.71;86.51;97818.97;10462925;28;20231;-66
2023/12/29 18:57:58;;;;;;;15.10;13.63;;;6.90;99.90;;;7.62;86.39;97817.56;10458760;28;20362;-66
2023/12/29 19:03:01;;;;;;;10.20;9.30;;;6.80;99.90;;;7.55;86.76;97811.97;10458482;28;20321;-66
2023/12/29 19:08:05;;;;;;;9.33;8.43;;;6.80;99.90;;;7.39;86.86;97821.09;10451940;28;20237;-66
2023/12/29 19:13:10;;;;;;;9.33;8.43;;;6.70;99.90;;;7.52;88.76;97830.44;10431648;28;20224;-66
2023/12/29 19:18:13;;;;;;;10.47;9.47;;;6.70;99.90;;;7.40;88.90;97822.84;10474111;28;20329;-66
2023/12/29 19:23:16;;;;;;;10.10;9.20;;;6.60;99.90;;;7.30;89.06;97825.56;10484243;28;20234;-66
2023/12/29 19:28:21;;;;;;;10.27;9.27;;;6.50;99.90;;;7.21;90.20;97823.25;10421533;28;20251;-66
2023/12/29 19:33:24;;;;;;;9.20;8.30;;;6.50;99.90;;;7.13;89.96;97829.47;10465716;28;20287;-66
2023/12/29 19:38:27;;;;;;;10.50;9.40;;;6.40;99.90;;;7.01;90.64;97823.53;10434874;28;20232;-66
2023/12/29 19:43:32;;;;;;;10.13;9.23;;;6.30;99.90;;;6.88;91.29;97823.44;10469922;28;20713;-65
2023/12/29 19:48:36;;;;;;;9.93;8.93;;;6.10;99.90;;;6.81;91.76;97824.69;10439797;28;20282;-66
2023/12/29 19:53:39;;;;;;;9.00;8.20;;;6.10;99.90;;;6.74;91.62;97822.47;10451842;28;20665;-66
2023/12/29 19:58:43;;;;;;;9.13;8.33;;;6.00;99.90;;;6.63;92.91;97818.28;10465034;28;20244;-66
2023/12/29 20:03:47;;;;;;;8.73;7.93;;;5.90;99.90;;;6.63;92.54;97814.06;10481316;28;20238;-66
2023/12/29 20:08:51;;;;;;;11.97;10.87;;;6.00;99.90;;;6.64;94.03;97825.09;10438050;28;20228;-66
2023/12/29 20:13:55;;;;;;;8.83;7.93;;;6.00;99.90;;;6.66;94.15;97826.09;10465049;28;20227;-66
2023/12/29 20:19:00;;;;;;;10.30;9.30;;;6.00;99.90;;;6.74;94.54;97828.41;10457386;28;20231;-66
2023/12/29 20:24:06;;;;;;;8.70;7.90;;;6.00;99.90;;;6.63;95.16;97824.22;10458756;28;20337;-66
2023/12/29 20:29:12;;;;;;;8.20;7.50;;;5.90;99.90;;;6.64;94.90;97815.84;10474819;28;20281;-66
2023/12/29 20:34:15;;;;;;;8.07;7.33;;;5.90;99.90;;;6.61;95.46;97824.88;10476065;28;20232;-65
2023/12/29 20:39:19;;;;;;;5.80;5.30;;;6.00;99.90;;;6.77;95.60;97823.56;10479820;28;20670;-66
2023/12/29 20:44:23;;;;;;;7.30;6.60;;;6.00;99.90;;;6.77;96.14;97823.56;10472255;28;22921;-66
2023/12/29 20:49:26;;;;;;;6.63;6.07;;;6.10;99.90;;;6.73;95.33;97826.66;10467805;28;20220;-65
2023/12/29 20:54:32;;;;;;;5.50;5.10;;;6.10;99.90;;;6.79;95.75;97830.41;10471324;28;20270;-65
2023/12/29 20:59:39;;;;;;;4.83;4.37;;;6.10;99.90;;;6.82;95.72;97836.59;10469140;28;20226;-66
2023/12/29 21:04:42;;;;;;;5.90;5.40;;;6.20;99.90;;;6.98;94.90;97838.53;10502669;28;20450;-65
2023/12/29 21:09:48;;;;;;;6.70;5.47;;;6.40;99.90;;;7.11;94.47;97846.25;10490188;28;20321;-66
2023/12/29 21:14:52;;;;;;;172.33;88.00;;;6.50;99.90;;;7.20;93.39;97846.91;10481875;28;20217;-66
2023/12/29 21:19:55;;;;;;;64.63;40.53;;;6.60;99.90;;;7.25;92.87;97838.72;10451122;28;21094;-65